createdAt,value
2018-10-05T00:01:43.285Z,9.80
2018-10-05T00:04:11.965Z,9.75
2018-10-05T00:06:40.657Z,9.95
2018-10-05T00:09:10.760Z,10.05
2018-10-05T00:11:39.485Z,9.40
2018-10-05T00:14:08.149Z,11.30
2018-10-05T00:16:36.941Z,10.18
2018-10-05T00:19:05.781Z,10.95
2018-10-05T00:21:34.920Z,10.10
2018-10-05T00:24:03.621Z,10.58
2018-10-05T00:26:32.360Z,10.23
2018-10-05T00:29:01.012Z,9.83
2018-10-05T00:31:29.660Z,10.15
2018-10-05T00:33:58.675Z,10.03
2018-10-05T00:36:27.204Z,9.65
2018-10-05T00:38:55.864Z,10.95
2018-10-05T00:41:24.588Z,9.93
2018-10-05T00:43:53.472Z,9.75
2018-10-05T00:46:21.996Z,10.40
2018-10-05T00:48:50.655Z,10.43
2018-10-05T00:51:19.336Z,10.13
2018-10-05T00:53:47.875Z,10.72
2018-10-05T00:56:16.428Z,10.55
2018-10-05T00:58:45.708Z,10.05
2018-10-05T01:01:15.232Z,10.93
2018-10-05T01:03:43.768Z,11.33
2018-10-05T01:06:12.636Z,10.43
2018-10-05T01:08:41.576Z,10.15
2018-10-05T01:11:10.096Z,10.32
2018-10-05T01:13:39.004Z,10.03
2018-10-05T01:16:07.564Z,10.20
2018-10-05T01:18:36.120Z,10.80
2018-10-05T01:21:04.836Z,11.48
2018-10-05T01:23:33.364Z,11.35
2018-10-05T01:26:01.922Z,11.43
2018-10-05T01:28:30.529Z,11.28
2018-10-05T01:30:59.160Z,11.93
2018-10-05T01:33:28.036Z,11.90
2018-10-05T01:35:56.708Z,11.70
2018-10-05T01:38:25.360Z,10.95
2018-10-05T01:40:54.028Z,11.15
2018-10-05T01:43:22.912Z,10.82
2018-10-05T01:45:51.450Z,10.13
2018-10-05T01:48:19.953Z,11.15
2018-10-05T01:50:48.584Z,10.58
2018-10-05T01:53:17.356Z,10.88
2018-10-05T01:55:45.864Z,10.82
2018-10-05T01:58:14.388Z,10.75
2018-10-05T02:00:42.912Z,11.12
2018-10-05T02:03:11.547Z,10.75
2018-10-05T02:05:40.053Z,9.53
2018-10-05T02:08:08.632Z,11.22
2018-10-05T02:10:37.472Z,10.90
2018-10-05T02:13:06.044Z,10.25
2018-10-05T02:15:35.076Z,9.63
2018-10-05T02:18:03.740Z,10.60
2018-10-05T02:20:32.292Z,10.35
2018-10-05T02:23:01.080Z,9.23
2018-10-05T02:25:29.696Z,9.78
2018-10-05T02:27:58.704Z,9.85
2018-10-05T02:30:27.632Z,9.18
2018-10-05T02:32:56.213Z,9.83
2018-10-05T02:35:24.744Z,9.28
2018-10-05T02:37:53.267Z,9.38
2018-10-05T02:40:21.836Z,9.10
2018-10-05T02:42:50.628Z,9.00
2018-10-05T02:45:19.171Z,9.98
2018-10-05T02:47:47.692Z,8.93
2018-10-05T02:50:16.515Z,9.40
2018-10-05T02:52:45.092Z,9.85
2018-10-05T02:55:13.708Z,9.78
2018-10-05T02:57:42.288Z,9.60
2018-10-05T03:00:21.963Z,9.90
2018-10-05T03:02:50.815Z,10.18
2018-10-05T03:05:19.427Z,9.53
2018-10-05T03:07:48.211Z,9.98
2018-10-05T03:10:17.019Z,9.93
2018-10-05T03:12:45.534Z,9.63
2018-10-05T03:15:14.071Z,9.98
2018-10-05T03:17:43.297Z,9.53
2018-10-05T03:20:12.231Z,9.60
2018-10-05T03:24:10.514Z,10.60
2018-10-05T03:26:39.067Z,9.83
2018-10-05T03:29:07.623Z,10.45
2018-10-05T03:31:36.571Z,9.23
2018-10-05T03:34:05.451Z,9.53
2018-10-05T03:36:34.074Z,10.10
2018-10-05T03:39:02.658Z,9.80
2018-10-05T03:41:31.189Z,9.40
2018-10-05T03:43:59.697Z,11.30
2018-10-05T03:46:28.289Z,9.90
2018-10-05T03:48:57.464Z,11.08
2018-10-05T03:51:26.086Z,10.10
2018-10-05T03:53:54.597Z,10.20
2018-10-05T03:56:23.153Z,10.53
2018-10-05T03:58:51.954Z,9.90
2018-10-05T04:01:20.869Z,10.28
2018-10-05T04:03:49.437Z,10.20
2018-10-05T04:06:18.788Z,10.18
2018-10-05T04:08:47.328Z,9.55
2018-10-05T04:11:16.092Z,9.60
2018-10-05T04:13:44.616Z,10.28
2018-10-05T04:16:13.238Z,10.38
2018-10-05T04:18:41.813Z,9.53
2018-10-05T04:21:10.421Z,10.80
2018-10-05T04:23:39.285Z,9.28
2018-10-05T04:26:07.909Z,10.20
2018-10-05T04:28:36.564Z,9.25
2018-10-05T04:31:05.221Z,9.60
2018-10-05T04:33:33.897Z,9.58
2018-10-05T04:36:02.464Z,10.38
2018-10-05T04:38:30.937Z,10.40
2018-10-05T04:40:59.458Z,9.43
2018-10-05T04:43:27.957Z,9.23
2018-10-05T04:45:56.544Z,9.33
2018-10-05T04:48:25.157Z,11.50
2018-10-05T04:50:53.741Z,11.53
2018-10-05T04:53:22.698Z,10.65
2018-10-05T04:55:51.245Z,10.20
2018-10-05T04:58:19.885Z,10.72
2018-10-05T05:00:48.555Z,10.18
2018-10-05T05:03:17.041Z,9.88
2018-10-05T05:05:45.561Z,9.83
2018-10-05T05:08:14.065Z,8.98
2018-10-05T05:10:42.944Z,9.25
2018-10-05T05:13:11.421Z,9.78
2018-10-05T05:15:39.933Z,10.00
2018-10-05T05:18:08.653Z,9.93
2018-10-05T05:20:37.605Z,9.68
2018-10-05T05:23:07.113Z,9.35
2018-10-05T05:25:35.736Z,9.75
2018-10-05T05:28:05.067Z,10.25
2018-10-05T05:30:33.703Z,9.53
2018-10-05T05:33:02.263Z,9.98
2018-10-05T05:35:30.799Z,10.30
2018-10-05T05:37:59.352Z,9.25
2018-10-05T05:40:27.907Z,9.35
2018-10-05T05:42:56.464Z,10.63
2018-10-05T05:45:24.993Z,9.83
2018-10-05T05:47:53.991Z,10.00
2018-10-05T05:50:22.583Z,10.00
2018-10-05T05:52:51.179Z,9.65
2018-10-05T05:55:19.745Z,9.23
2018-10-05T05:57:48.311Z,10.15
2018-10-05T06:00:16.867Z,10.18
2018-10-05T06:02:45.603Z,10.55
2018-10-05T06:05:14.122Z,9.48
2018-10-05T06:07:42.815Z,9.65
2018-10-05T06:10:11.933Z,9.93
2018-10-05T06:12:40.451Z,9.23
2018-10-05T06:15:09.023Z,10.25
2018-10-05T06:17:37.551Z,10.35
2018-10-05T06:20:07.103Z,9.15
2018-10-05T06:22:35.616Z,9.83
2018-10-05T06:25:04.168Z,10.48
2018-10-05T06:27:33.131Z,10.18
2018-10-05T06:30:01.584Z,10.03
2018-10-05T06:32:30.118Z,10.58
2018-10-05T06:34:58.619Z,10.60
2018-10-05T06:37:28.287Z,10.38
2018-10-05T06:39:57.059Z,11.65
2018-10-05T06:42:25.777Z,11.78
2018-10-05T06:44:54.203Z,11.78
2018-10-05T06:47:22.753Z,11.45
2018-10-05T06:49:51.271Z,11.95
2018-10-05T06:52:19.787Z,9.95
2018-10-05T06:54:48.803Z,10.70
2018-10-05T06:57:17.543Z,10.88
2018-10-05T06:59:46.095Z,9.48
2018-10-05T07:02:15.676Z,10.18
2018-10-05T07:04:44.192Z,12.23
2018-10-05T07:07:12.838Z,10.72
2018-10-05T07:09:41.355Z,10.82
2018-10-05T07:12:09.875Z,9.35
2018-10-05T07:14:38.374Z,10.68
2018-10-05T07:17:06.907Z,9.90
2018-10-05T07:19:35.466Z,9.05
2018-10-05T07:22:05.215Z,10.82
2018-10-05T07:24:33.906Z,10.58
2018-10-05T07:27:02.458Z,11.08
2018-10-05T07:29:30.998Z,10.20
2018-10-05T07:31:59.514Z,9.78
2018-10-05T07:34:29.022Z,9.80
2018-10-05T07:36:58.108Z,10.20
2018-10-05T07:39:26.618Z,10.45
2018-10-05T07:41:55.462Z,11.43
2018-10-05T07:44:24.093Z,10.40
2018-10-05T07:46:52.649Z,10.85
2018-10-05T07:49:21.245Z,10.18
2018-10-05T07:51:49.901Z,10.58
2018-10-05T07:54:18.705Z,9.50
2018-10-05T07:56:47.209Z,10.18
2018-10-05T07:59:16.006Z,10.48
2018-10-05T08:01:44.517Z,10.60
2018-10-05T08:04:13.126Z,10.68
2018-10-05T08:06:41.722Z,12.33
2018-10-05T08:09:10.262Z,11.30
2018-10-05T08:11:38.886Z,10.45
2018-10-05T08:14:07.417Z,11.48
2018-10-05T08:16:35.930Z,12.43
2018-10-05T08:19:04.495Z,12.33
2018-10-05T08:21:33.125Z,11.03
2018-10-05T08:24:01.710Z,10.65
2018-10-05T08:26:30.226Z,11.55
2018-10-05T08:28:58.813Z,10.72
2018-10-05T08:31:27.373Z,11.45
2018-10-05T08:33:55.935Z,10.58
2018-10-05T08:36:24.565Z,10.75
2018-10-05T08:38:53.189Z,10.78
2018-10-05T08:41:21.721Z,10.50
2018-10-05T08:43:50.237Z,11.40
2018-10-05T08:46:19.258Z,10.50
2018-10-05T08:48:48.090Z,10.88
2018-10-05T08:51:17.069Z,10.50
2018-10-05T08:53:45.877Z,10.98
2018-10-05T08:56:14.457Z,11.28
2018-10-05T08:58:42.970Z,10.65
2018-10-05T09:01:11.465Z,10.82
2018-10-05T09:03:40.329Z,11.22
2018-10-05T09:06:08.813Z,10.65
2018-10-05T09:08:37.602Z,10.55
2018-10-05T09:11:06.262Z,10.90
2018-10-05T09:13:35.101Z,10.28
2018-10-05T09:16:04.357Z,11.57
2018-10-05T09:18:32.873Z,11.05
2018-10-05T09:21:01.565Z,11.43
2018-10-05T09:23:30.377Z,11.25
2018-10-05T09:25:58.963Z,11.28
2018-10-05T09:28:28.101Z,10.78
2018-10-05T09:30:56.641Z,11.57
2018-10-05T09:33:25.341Z,11.83
2018-10-05T09:35:53.865Z,11.20
2018-10-05T09:38:22.413Z,11.40
2018-10-05T09:40:50.941Z,12.35
2018-10-05T09:43:19.581Z,11.70
2018-10-05T09:45:48.213Z,11.97
2018-10-05T09:48:16.853Z,11.70
2018-10-05T09:50:45.494Z,11.97
2018-10-05T09:53:14.095Z,12.75
2018-10-05T09:55:42.953Z,11.90
2018-10-05T09:58:11.473Z,12.30
2018-10-05T10:00:45.253Z,11.43
2018-10-05T10:03:19.001Z,12.05
2018-10-05T10:05:47.521Z,12.45
2018-10-05T10:08:16.104Z,11.65
2018-10-05T10:10:45.001Z,12.00
2018-10-05T10:13:13.856Z,10.90
2018-10-05T10:15:42.369Z,10.93
2018-10-05T10:18:11.049Z,11.50
2018-10-05T10:20:39.693Z,11.38
2018-10-05T10:23:08.601Z,10.63
2018-10-05T10:25:37.596Z,10.53
2018-10-05T10:28:06.377Z,10.75
2018-10-05T10:30:34.833Z,10.70
2018-10-05T10:33:03.353Z,11.22
2018-10-05T10:35:32.136Z,11.35
2018-10-05T10:38:00.653Z,10.32
2018-10-05T10:40:29.569Z,10.90
2018-10-05T10:42:58.197Z,10.13
2018-10-05T10:45:26.757Z,9.90
2018-10-05T10:47:55.268Z,11.10
2018-10-05T10:50:23.941Z,10.50
2018-10-05T10:52:52.660Z,10.50
2018-10-05T10:55:21.173Z,10.00
2018-10-05T10:57:49.669Z,10.45
2018-10-05T11:00:18.493Z,9.33
2018-10-05T11:02:47.014Z,10.03
2018-10-05T11:05:15.613Z,7.72
2018-10-05T11:07:44.121Z,9.65
2018-10-05T11:10:12.652Z,9.60
2018-10-05T11:12:41.737Z,8.70
2018-10-05T11:15:10.417Z,8.85
2018-10-05T11:17:38.959Z,10.60
2018-10-05T11:20:07.560Z,10.80
2018-10-05T11:22:36.058Z,10.32
2018-10-05T11:25:04.641Z,9.00
2018-10-05T11:27:33.164Z,9.50
2018-10-05T11:30:01.801Z,10.53
2018-10-05T11:32:30.613Z,8.25
2018-10-05T11:34:59.532Z,9.10
2018-10-05T11:37:28.097Z,8.68
2018-10-05T11:39:56.745Z,8.08
2018-10-05T11:42:25.580Z,8.03
2018-10-05T11:44:54.657Z,8.05
2018-10-05T11:47:23.285Z,8.20
2018-10-05T11:49:51.808Z,8.38
2018-10-05T11:52:20.384Z,7.85
2018-10-05T11:54:49.169Z,8.83
2018-10-05T11:57:17.697Z,8.38
2018-10-05T11:59:46.658Z,8.33
2018-10-05T12:02:15.860Z,7.97
2018-10-05T12:04:44.373Z,8.10
2018-10-05T12:07:12.900Z,8.30
2018-10-05T12:09:41.804Z,9.23
2018-10-05T12:12:10.321Z,9.63
2018-10-05T12:14:38.821Z,8.53
2018-10-05T12:17:07.450Z,8.05
2018-10-05T12:19:36.001Z,7.72
2018-10-05T12:22:04.480Z,7.08
2018-10-05T12:24:33.045Z,7.20
2018-10-05T12:27:01.537Z,8.03
2018-10-05T12:29:32.176Z,7.55
2018-10-05T12:32:00.680Z,7.83
2018-10-05T12:34:29.511Z,7.50
2018-10-05T12:36:58.724Z,7.90
2018-10-05T12:39:27.580Z,7.65
2018-10-05T12:41:56.508Z,7.35
2018-10-05T12:44:25.049Z,7.83
2018-10-05T12:46:53.590Z,7.72
2018-10-05T12:49:22.100Z,7.28
2018-10-05T12:51:50.783Z,7.50
2018-10-05T12:54:19.299Z,7.87
2018-10-05T12:56:48.040Z,6.80
2018-10-05T12:59:16.620Z,8.40
2018-10-05T13:01:45.104Z,9.88
2018-10-05T13:04:13.640Z,9.65
2018-10-05T13:06:42.268Z,9.90
2018-10-05T13:09:10.827Z,7.90
2018-10-05T13:11:39.631Z,7.05
2018-10-05T13:14:08.288Z,7.65
2018-10-05T13:16:36.960Z,9.00
2018-10-05T13:19:05.440Z,8.08
2018-10-05T13:21:34.434Z,8.28
2018-10-05T13:24:04.020Z,9.83
2018-10-05T13:26:32.556Z,8.53
2018-10-05T13:29:01.054Z,7.78
2018-10-05T13:31:29.544Z,7.75
2018-10-05T13:33:58.473Z,7.37
2018-10-05T13:36:27.065Z,6.45
2018-10-05T13:38:55.587Z,7.47
2018-10-05T13:41:24.111Z,7.70
2018-10-05T13:43:53.035Z,6.78
2018-10-05T13:46:21.659Z,7.25
2018-10-05T13:48:50.525Z,7.05
2018-10-05T13:51:19.051Z,7.22
2018-10-05T13:53:47.551Z,7.42
2018-10-05T13:56:16.107Z,7.03
2018-10-05T13:58:45.077Z,7.10
2018-10-05T14:01:13.878Z,6.15
2018-10-05T14:03:42.676Z,6.22
2018-10-05T14:06:11.384Z,6.20
2018-10-05T14:08:40.673Z,5.67
2018-10-05T14:11:09.785Z,6.45
2018-10-05T14:15:56.169Z,6.15
2018-10-05T14:18:24.781Z,6.30
2018-10-05T14:20:53.697Z,6.25
2018-10-05T14:23:22.406Z,5.50
2018-10-05T14:25:51.389Z,5.35
2018-10-05T14:28:20.274Z,5.60
2018-10-05T14:30:49.545Z,6.17
2018-10-05T14:33:18.341Z,6.63
2018-10-05T14:35:46.997Z,5.65
2018-10-05T14:38:15.863Z,5.53
2018-10-05T14:40:44.561Z,6.90
2018-10-05T14:43:13.049Z,6.67
2018-10-05T14:45:42.356Z,7.28
2018-10-05T14:49:13.580Z,6.90
2018-10-05T14:51:42.015Z,6.85
2018-10-05T14:54:11.328Z,6.95
2018-10-05T14:56:39.847Z,7.03
2018-10-05T14:59:08.784Z,7.33
2018-10-05T15:01:37.603Z,8.73
2018-10-05T15:04:06.476Z,8.93
2018-10-05T15:06:35.292Z,9.85
2018-10-05T15:09:05.391Z,11.34
2018-10-05T15:11:34.776Z,6.83
2018-10-05T15:14:03.745Z,7.33
2018-10-05T15:16:32.619Z,7.20
2018-10-05T15:19:21.123Z,6.85
2018-10-05T15:21:54.624Z,6.85
2018-10-05T15:24:24.549Z,6.85
2018-10-05T15:26:53.595Z,6.85
2018-10-05T15:29:22.663Z,6.33
2018-10-05T15:31:51.707Z,6.30
2018-10-05T15:34:20.731Z,7.60
2018-10-05T15:36:49.704Z,9.00
2018-10-05T15:39:18.480Z,8.48
2018-10-05T15:41:47.276Z,9.40
2018-10-05T15:44:16.108Z,8.53
2018-10-05T15:47:01.464Z,6.87
2018-10-05T15:49:30.984Z,6.95
2018-10-05T15:52:00.077Z,6.90
2018-10-05T15:54:28.896Z,7.62
2018-10-05T15:56:57.656Z,6.75
2018-10-05T15:59:26.956Z,7.35
2018-10-05T16:01:55.819Z,8.03
2018-10-05T16:04:24.491Z,7.75
2018-10-05T16:06:53.278Z,6.75
2018-10-05T16:09:21.908Z,5.67
2018-10-05T16:11:50.598Z,5.58
2018-10-05T16:14:19.566Z,6.10
2018-10-05T16:16:48.446Z,6.08
2018-10-05T16:19:17.186Z,5.80
2018-10-05T16:21:51.539Z,5.97
2018-10-05T16:29:55.842Z,10.03
2018-10-05T16:37:36.587Z,9.68
2018-10-05T16:40:06.522Z,10.68
2018-10-05T16:42:35.439Z,10.55
2018-10-05T16:45:10.711Z,9.75
2018-10-05T16:47:39.787Z,10.43
2018-10-05T16:50:08.835Z,8.95
2018-10-05T17:06:35.430Z,8.60
2018-10-05T17:09:08.266Z,8.50
2018-10-05T17:11:38.722Z,8.73
2018-10-05T17:19:07.043Z,14.40
2018-10-05T17:22:31.942Z,14.47
2018-10-05T17:25:21.710Z,20.68
2018-10-05T17:27:54.506Z,22.32
2018-10-05T17:33:35.546Z,18.05
2018-10-05T17:41:08.879Z,14.60
2018-10-05T17:43:38.181Z,13.15
2018-10-05T17:46:07.087Z,9.90
2018-10-05T17:48:36.442Z,10.13
2018-10-05T17:51:07.350Z,9.50
2018-10-05T17:56:21.588Z,8.80
2018-10-05T18:01:59.316Z,8.00
2018-10-05T18:04:35.589Z,8.58
2018-10-05T18:07:05.366Z,8.25
2018-10-05T18:10:05.082Z,8.93
2018-10-05T18:12:34.158Z,8.28
2018-10-05T18:15:03.158Z,8.38
2018-10-05T18:17:31.982Z,8.15
2018-10-05T18:20:00.769Z,8.23
2018-10-05T18:22:29.701Z,8.33
2018-10-05T18:24:58.609Z,8.25
2018-10-05T18:27:27.609Z,8.38
2018-10-05T18:29:56.673Z,7.33
2018-10-05T18:32:25.510Z,7.75
2018-10-05T18:34:54.305Z,8.85
2018-10-05T18:37:27.669Z,9.10
2018-10-05T18:39:56.485Z,8.88
2018-10-05T18:42:25.363Z,8.43
2018-10-05T18:44:54.394Z,8.98
2018-10-05T18:47:23.477Z,9.40
2018-10-05T18:49:52.197Z,9.53
2018-10-05T18:52:20.933Z,9.50
2018-10-05T18:54:49.911Z,10.00
2018-10-05T18:57:22.167Z,9.17
2018-10-05T19:13:03.311Z,9.05
2018-10-05T19:15:31.921Z,10.78
2018-10-05T19:18:00.635Z,10.50
2018-10-05T19:20:29.424Z,11.63
2018-10-05T19:22:57.937Z,12.10
2018-10-05T19:25:26.500Z,11.15
2018-10-05T19:27:55.053Z,13.48
2018-10-05T19:30:23.501Z,13.93
2018-10-05T19:33:06.329Z,13.58
2018-10-05T19:35:34.919Z,12.95
2018-10-05T19:38:03.454Z,13.60
2018-10-05T19:40:32.209Z,12.80
2018-10-05T19:43:01.313Z,11.60
2018-10-05T19:45:29.833Z,11.78
2018-10-05T19:47:58.333Z,11.08
2018-10-05T19:50:26.992Z,10.50
2018-10-05T19:52:55.744Z,10.55
2018-10-05T19:55:24.441Z,9.80
2018-10-05T19:57:53.197Z,11.93
2018-10-05T20:00:22.272Z,11.22
2018-10-05T20:02:51.412Z,11.78
2018-10-05T20:05:19.857Z,12.77
2018-10-05T20:07:48.317Z,12.98
2018-10-05T20:10:16.780Z,13.80
2018-10-05T20:12:45.229Z,14.80
2018-10-05T20:15:14.932Z,14.85
2018-10-05T20:17:49.841Z,13.95
2018-10-05T20:20:18.665Z,12.93
2018-10-05T20:22:47.937Z,12.10
2018-10-05T20:25:16.502Z,12.15
2018-10-05T20:27:45.437Z,12.88
2018-10-05T20:30:14.785Z,11.23
2018-10-05T20:32:43.332Z,11.43
2018-10-05T20:35:11.877Z,11.38
2018-10-05T20:37:40.577Z,12.40
2018-10-05T20:40:08.860Z,11.90
2018-10-05T20:42:37.785Z,11.15
2018-10-05T20:45:06.541Z,12.60
2018-10-05T20:47:35.116Z,12.00
2018-10-05T20:50:03.672Z,12.55
2018-10-05T20:52:32.160Z,12.95
2018-10-05T20:55:00.621Z,12.98
2018-10-05T20:57:29.517Z,13.98
2018-10-05T20:59:58.198Z,13.85
2018-10-05T21:02:26.725Z,14.55
2018-10-05T21:04:55.228Z,13.80
2018-10-05T21:07:23.720Z,14.55
2018-10-05T21:09:52.954Z,13.13
2018-10-05T21:12:21.808Z,13.25
2018-10-05T21:14:50.656Z,13.50
2018-10-05T21:17:23.320Z,13.15
2018-10-05T21:20:03.034Z,12.55
2018-10-05T21:22:38.096Z,12.85
2018-10-05T21:25:06.832Z,12.85
2018-10-05T21:27:35.416Z,12.85
2018-10-05T21:30:03.952Z,13.38
2018-10-05T21:32:32.392Z,13.05
2018-10-05T21:35:01.737Z,11.85
2018-10-05T21:37:30.253Z,11.80
2018-10-05T21:39:58.812Z,11.90
2018-10-05T21:42:28.409Z,12.30
2018-10-05T21:44:57.644Z,11.95
2018-10-05T21:47:26.125Z,11.22
2018-10-05T21:49:54.581Z,10.78
2018-10-05T21:52:23.070Z,10.35
2018-10-05T21:54:51.484Z,11.00
2018-10-05T21:57:20.657Z,10.13
2018-10-05T21:59:49.149Z,10.23
2018-10-05T22:02:17.664Z,10.50
2018-10-05T22:04:46.124Z,10.75
2018-10-05T22:07:14.589Z,10.95
2018-10-05T22:09:43.158Z,10.18
2018-10-05T22:12:11.896Z,11.03
2018-10-05T22:14:40.356Z,11.03
2018-10-05T22:17:09.164Z,11.05
2018-10-05T22:19:37.730Z,10.75
2018-10-05T22:22:06.094Z,10.32
2018-10-05T22:24:34.569Z,11.38
2018-10-05T22:27:03.040Z,10.90
2018-10-05T22:29:31.619Z,10.50
2018-10-05T22:32:00.088Z,11.30
2018-10-05T22:34:28.547Z,11.65
2018-10-05T22:36:56.991Z,11.95
2018-10-05T22:39:25.699Z,12.25
2018-10-05T22:41:54.942Z,11.78
2018-10-05T22:44:23.431Z,11.43
2018-10-05T22:46:51.920Z,10.90
2018-10-05T22:49:20.408Z,12.55
2018-10-05T22:51:48.871Z,12.85
2018-10-05T22:54:17.399Z,12.25
2018-10-05T22:56:46.196Z,11.88
2018-10-05T22:59:14.780Z,11.33
2018-10-05T23:01:43.653Z,11.55
2018-10-05T23:04:12.415Z,12.10
2018-10-05T23:06:40.939Z,11.55
2018-10-05T23:09:10.155Z,11.12
2018-10-05T23:11:38.619Z,11.40
2018-10-05T23:14:07.671Z,11.38
2018-10-05T23:17:06.699Z,10.25
2018-10-05T23:19:35.239Z,10.82
2018-10-05T23:22:04.235Z,11.03
2018-10-05T23:24:32.729Z,11.08
2018-10-05T23:27:01.231Z,11.10
2018-10-05T23:29:29.679Z,11.45
2018-10-05T23:31:58.147Z,10.80
2018-10-05T23:34:26.603Z,11.12
2018-10-05T23:36:55.081Z,11.12
2018-10-05T23:39:23.554Z,11.28
2018-10-05T23:41:52.003Z,11.03
2018-10-05T23:44:20.438Z,10.72
2018-10-05T23:46:48.979Z,11.55
2018-10-05T23:49:17.742Z,11.50
2018-10-05T23:51:46.322Z,12.30
2018-10-05T23:54:14.818Z,11.33
2018-10-05T23:56:43.528Z,11.10
2018-10-05T23:59:11.993Z,11.00
